createdAt,value
2017-08-11T00:01:23.021Z,26.00
2017-08-11T00:03:50.517Z,26.00
2017-08-11T00:06:18.007Z,26.00
2017-08-11T00:08:45.499Z,25.90
2017-08-11T00:11:12.998Z,25.80
2017-08-11T00:13:40.483Z,25.40
2017-08-11T00:16:07.975Z,25.70
2017-08-11T00:18:35.473Z,26.00
2017-08-11T00:21:02.942Z,26.00
2017-08-11T00:23:30.417Z,25.30
2017-08-11T00:25:58.677Z,25.80
2017-08-11T00:28:26.153Z,25.80
2017-08-11T00:30:53.619Z,25.80
2017-08-11T00:33:21.123Z,25.80
2017-08-11T00:35:48.608Z,25.90
2017-08-11T00:38:16.096Z,25.80
2017-08-11T00:40:43.585Z,25.90
2017-08-11T00:43:11.064Z,25.80
2017-08-11T00:45:38.572Z,25.30
2017-08-11T00:48:06.828Z,25.00
2017-08-11T00:50:34.311Z,25.00
2017-08-11T00:53:01.798Z,24.80
2017-08-11T00:55:29.300Z,25.40
2017-08-11T00:57:56.795Z,25.70
2017-08-11T01:00:24.291Z,25.70
2017-08-11T01:02:51.777Z,25.30
2017-08-11T01:05:19.257Z,25.70
2017-08-11T01:07:47.491Z,25.10
2017-08-11T01:10:14.987Z,25.10
2017-08-11T01:12:42.466Z,24.90
2017-08-11T01:15:09.946Z,24.50
2017-08-11T01:17:37.445Z,24.20
2017-08-11T01:20:04.928Z,24.40
2017-08-11T01:22:33.180Z,25.20
2017-08-11T01:25:00.670Z,25.10
2017-08-11T01:27:28.155Z,24.50
2017-08-11T01:29:55.653Z,24.80
2017-08-11T01:32:23.150Z,25.20
2017-08-11T01:34:50.636Z,24.60
2017-08-11T01:37:18.631Z,24.90
2017-08-11T01:39:46.886Z,25.30
2017-08-11T01:42:14.663Z,25.30
2017-08-11T01:44:42.143Z,25.10
2017-08-11T01:47:09.640Z,25.30
2017-08-11T01:49:37.108Z,25.10
2017-08-11T01:52:04.581Z,25.10
2017-08-11T01:54:32.081Z,24.80
2017-08-11T01:57:04.719Z,24.40
2017-08-11T01:59:32.911Z,24.50
2017-08-11T02:02:00.487Z,24.40
2017-08-11T02:04:27.979Z,24.40
2017-08-11T02:06:56.237Z,24.80
2017-08-11T02:09:23.713Z,24.80
2017-08-11T02:11:51.958Z,25.00
2017-08-11T02:14:19.459Z,25.00
2017-08-11T02:16:46.933Z,25.00
2017-08-11T02:19:14.556Z,25.00
2017-08-11T02:21:42.111Z,24.90
2017-08-11T02:24:09.746Z,24.90
2017-08-11T02:26:37.276Z,24.60
2017-08-11T02:29:05.041Z,24.60
2017-08-11T02:31:32.513Z,24.40
2017-08-11T02:33:59.985Z,25.00
2017-08-11T02:36:27.482Z,24.90
2017-08-11T02:38:54.959Z,24.30
2017-08-11T02:41:22.435Z,24.30
2017-08-11T02:43:49.936Z,24.10
2017-08-11T02:46:17.428Z,24.30
2017-08-11T02:48:45.688Z,24.10
2017-08-11T02:51:13.188Z,24.10
2017-08-11T02:53:40.673Z,24.50
2017-08-11T02:56:08.159Z,24.40
2017-08-11T02:58:35.658Z,24.20
2017-08-11T03:01:03.136Z,23.90
2017-08-11T03:03:30.703Z,23.70
2017-08-11T03:05:58.199Z,23.40
2017-08-11T03:08:25.671Z,24.20
2017-08-11T03:10:53.141Z,23.90
2017-08-11T03:13:21.398Z,23.50
2017-08-11T03:15:48.880Z,23.40
2017-08-11T03:18:17.124Z,23.50
2017-08-11T03:20:44.619Z,23.40
2017-08-11T03:23:12.866Z,24.00
2017-08-11T03:25:40.350Z,24.00
2017-08-11T03:28:08.610Z,23.30
2017-08-11T03:30:36.104Z,23.30
2017-08-11T03:33:03.589Z,23.50
2017-08-11T03:35:31.088Z,23.30
2017-08-11T03:37:58.575Z,23.10
2017-08-11T03:40:26.065Z,23.40
2017-08-11T03:42:53.545Z,23.20
2017-08-11T03:45:21.036Z,23.20
2017-08-11T03:47:49.282Z,23.10
2017-08-11T03:50:16.767Z,23.00
2017-08-11T03:52:45.011Z,23.30
2017-08-11T03:55:12.484Z,23.30
2017-08-11T03:57:39.988Z,23.20
2017-08-11T04:00:07.469Z,22.90
2017-08-11T04:02:34.946Z,22.90
2017-08-11T04:05:02.438Z,22.70
2017-08-11T04:07:30.701Z,23.40
2017-08-11T04:09:58.196Z,23.30
2017-08-11T04:12:25.692Z,23.20
2017-08-11T04:14:53.183Z,23.80
2017-08-11T04:17:20.667Z,24.40
2017-08-11T04:19:48.161Z,24.50
2017-08-11T04:22:15.643Z,24.10
2017-08-11T04:24:43.117Z,24.10
2017-08-11T04:27:10.614Z,24.40
2017-08-11T04:29:38.108Z,24.50
2017-08-11T04:32:05.595Z,23.80
2017-08-11T04:34:33.092Z,23.20
2017-08-11T04:37:00.587Z,22.90
2017-08-11T04:39:28.073Z,22.70
2017-08-11T04:41:55.582Z,22.50
2017-08-11T04:44:23.074Z,22.60
2017-08-11T04:46:50.562Z,22.70
2017-08-11T04:49:18.050Z,22.90
2017-08-11T04:51:45.554Z,22.80
2017-08-11T04:54:13.034Z,22.50
2017-08-11T04:56:41.307Z,22.60
2017-08-11T04:59:08.917Z,22.60
2017-08-11T05:01:36.390Z,23.30
2017-08-11T05:04:03.883Z,24.00
2017-08-11T05:06:31.366Z,24.30
2017-08-11T05:08:58.859Z,23.70
2017-08-11T05:11:26.365Z,23.50
2017-08-11T05:13:53.843Z,23.50
2017-08-11T05:16:22.083Z,23.60
2017-08-11T05:18:49.584Z,23.60
2017-08-11T05:21:17.090Z,23.20
2017-08-11T05:23:44.587Z,23.10
2017-08-11T05:26:12.892Z,23.00
2017-08-11T05:28:40.392Z,22.90
2017-08-11T05:31:07.874Z,23.10
2017-08-11T05:33:36.134Z,24.00
2017-08-11T05:36:03.613Z,23.90
2017-08-11T05:38:31.858Z,24.10
2017-08-11T05:40:59.349Z,24.00
2017-08-11T05:43:26.833Z,24.00
2017-08-11T05:45:54.319Z,24.00
2017-08-11T05:48:21.820Z,24.30
2017-08-11T05:50:49.319Z,24.60
2017-08-11T05:53:16.810Z,24.30
2017-08-11T05:55:44.342Z,24.30
2017-08-11T05:58:11.830Z,24.10
2017-08-11T06:00:39.312Z,23.90
2017-08-11T06:03:06.809Z,23.70
2017-08-11T06:05:34.295Z,23.90
2017-08-11T06:08:01.772Z,24.20
2017-08-11T06:10:29.267Z,24.20
2017-08-11T06:12:57.501Z,24.10
2017-08-11T06:15:24.996Z,24.10
2017-08-11T06:17:53.271Z,24.20
2017-08-11T06:20:21.517Z,24.00
2017-08-11T06:22:48.991Z,24.00
2017-08-11T06:25:16.486Z,23.80
2017-08-11T06:27:43.988Z,23.80
2017-08-11T06:30:11.480Z,23.80
2017-08-11T06:32:38.975Z,23.70
2017-08-11T06:35:06.465Z,23.80
2017-08-11T06:37:33.962Z,23.80
2017-08-11T06:40:02.255Z,23.90
2017-08-11T06:42:29.755Z,23.80
2017-08-11T06:44:57.229Z,24.00
2017-08-11T06:47:24.732Z,24.00
2017-08-11T06:49:52.218Z,24.10
2017-08-11T06:52:19.705Z,24.00
2017-08-11T06:54:47.192Z,24.00
2017-08-11T06:57:15.430Z,24.10
2017-08-11T06:59:42.915Z,24.00
2017-08-11T07:02:10.402Z,24.20
2017-08-11T07:04:38.646Z,24.30
2017-08-11T07:07:06.127Z,24.20
2017-08-11T07:09:34.396Z,24.40
2017-08-11T07:12:01.881Z,24.40
2017-08-11T07:14:29.364Z,24.40
2017-08-11T07:16:56.863Z,24.40
2017-08-11T07:19:24.341Z,24.50
2017-08-11T07:21:52.589Z,24.60
2017-08-11T07:24:20.088Z,24.50
2017-08-11T07:26:47.597Z,24.60
2017-08-11T07:29:15.087Z,24.70
2017-08-11T07:31:43.341Z,24.70
2017-08-11T07:34:10.820Z,24.60
2017-08-11T07:36:38.302Z,24.70
2017-08-11T07:39:05.799Z,24.80
2017-08-11T07:41:33.283Z,24.90
2017-08-11T07:44:00.768Z,24.80
2017-08-11T07:46:28.430Z,24.80
2017-08-11T07:48:56.681Z,24.90
2017-08-11T07:51:24.164Z,24.90
2017-08-11T07:53:52.423Z,25.00
2017-08-11T07:56:19.906Z,25.00
2017-08-11T07:58:48.159Z,25.00
2017-08-11T08:01:15.645Z,25.00
2017-08-11T08:03:43.120Z,25.00
2017-08-11T08:06:10.605Z,25.00
2017-08-11T08:08:38.095Z,25.00
2017-08-11T08:11:05.575Z,25.10
2017-08-11T08:13:33.045Z,25.10
2017-08-11T08:16:00.543Z,25.20
2017-08-11T08:18:28.022Z,25.30
2017-08-11T08:20:55.507Z,25.40
2017-08-11T08:23:23.766Z,25.40
2017-08-11T08:25:51.256Z,25.40
2017-08-11T08:28:18.741Z,25.50
2017-08-11T08:30:46.235Z,25.60
2017-08-11T08:33:13.721Z,25.60
2017-08-11T08:35:41.962Z,25.70
2017-08-11T08:38:09.453Z,25.60
2017-08-11T08:40:37.697Z,25.60
2017-08-11T08:43:05.186Z,25.50
2017-08-11T08:45:33.446Z,25.40
2017-08-11T08:48:00.938Z,25.40
2017-08-11T08:50:29.184Z,25.60
2017-08-11T08:52:56.666Z,25.60
2017-08-11T08:55:24.901Z,25.70
2017-08-11T08:57:52.387Z,25.60
2017-08-11T09:00:19.910Z,25.80
2017-08-11T09:02:47.395Z,25.80
2017-08-11T09:05:14.882Z,25.70
2017-08-11T09:07:43.146Z,25.60
2017-08-11T09:10:11.398Z,25.60
2017-08-11T09:12:38.883Z,25.60
2017-08-11T09:15:07.133Z,25.70
2017-08-11T09:17:34.606Z,25.60
2017-08-11T09:20:02.085Z,25.70
2017-08-11T09:22:29.578Z,25.70
2017-08-11T09:25:08.868Z,25.70
2017-08-11T09:27:48.226Z,25.70
2017-08-11T09:30:28.364Z,25.70
2017-08-11T09:33:08.561Z,25.70
2017-08-11T09:35:47.934Z,25.60
2017-08-11T09:38:15.425Z,25.70
2017-08-11T09:40:43.676Z,25.80
2017-08-11T09:43:11.154Z,25.80
2017-08-11T09:45:39.418Z,25.70
2017-08-11T09:48:06.934Z,25.70
2017-08-11T09:50:34.418Z,25.80
2017-08-11T09:53:01.920Z,25.80
2017-08-11T09:55:29.406Z,25.90
2017-08-11T09:57:56.886Z,26.00
2017-08-11T10:00:24.385Z,26.20
2017-08-11T10:02:52.634Z,27.10
2017-08-11T10:05:20.110Z,27.10
2017-08-11T10:07:47.591Z,27.30
2017-08-11T10:10:15.070Z,29.30
2017-08-11T10:12:42.546Z,28.60
2017-08-11T10:15:10.043Z,27.40
2017-08-11T10:17:37.540Z,27.60
2017-08-11T10:20:05.030Z,27.30
2017-08-11T10:22:32.513Z,26.90
2017-08-11T10:24:59.991Z,27.40
2017-08-11T10:27:28.247Z,27.40
2017-08-11T10:29:55.758Z,27.30
2017-08-11T10:32:23.237Z,27.30
2017-08-11T10:34:50.717Z,27.10
2017-08-11T10:37:18.235Z,27.60
2017-08-11T10:39:45.710Z,27.40
2017-08-11T10:42:13.199Z,27.10
2017-08-11T10:44:40.710Z,27.00
2017-08-11T10:47:08.192Z,26.80
2017-08-11T10:49:35.669Z,26.80
2017-08-11T10:52:03.170Z,26.80
2017-08-11T10:54:30.642Z,27.00
2017-08-11T10:56:58.125Z,27.20
2017-08-11T10:59:25.628Z,27.40
2017-08-11T11:01:53.107Z,27.60
2017-08-11T11:04:21.354Z,27.40
2017-08-11T11:06:48.860Z,27.40
2017-08-11T11:09:16.343Z,27.40
2017-08-11T11:11:43.813Z,27.40
2017-08-11T11:14:11.293Z,27.30
2017-08-11T11:16:38.773Z,27.30
2017-08-11T11:19:07.045Z,27.50
2017-08-11T11:21:35.305Z,27.50
2017-08-11T11:24:02.786Z,27.40
2017-08-11T11:26:30.267Z,27.10
2017-08-11T11:28:57.766Z,26.90
2017-08-11T11:31:25.247Z,26.80
2017-08-11T11:33:52.730Z,27.10
2017-08-11T11:36:20.235Z,27.20
2017-08-11T11:38:47.721Z,27.20
2017-08-11T11:41:15.203Z,27.40
2017-08-11T11:43:43.456Z,27.30
2017-08-11T11:46:10.962Z,27.30
2017-08-11T11:48:38.436Z,27.30
2017-08-11T11:51:05.925Z,27.20
2017-08-11T11:53:33.404Z,27.20
2017-08-11T11:56:01.646Z,27.40
2017-08-11T11:58:29.141Z,27.40
2017-08-11T12:00:56.620Z,27.30
2017-08-11T12:03:24.094Z,27.30
2017-08-11T12:05:51.586Z,27.40
2017-08-11T12:08:19.062Z,27.50
2017-08-11T12:10:46.556Z,27.40
2017-08-11T12:13:14.059Z,27.40
2017-08-11T12:15:41.539Z,27.40
2017-08-11T12:18:09.059Z,27.30
2017-08-11T12:20:37.085Z,27.30
2017-08-11T12:23:05.334Z,27.30
2017-08-11T12:25:32.824Z,27.30
2017-08-11T12:28:00.321Z,27.40
2017-08-11T12:30:27.801Z,27.20
2017-08-11T12:32:55.287Z,27.20
2017-08-11T12:35:22.782Z,27.20
2017-08-11T12:37:50.261Z,27.30
2017-08-11T12:40:17.733Z,27.30
2017-08-11T12:42:45.235Z,27.20
2017-08-11T12:45:12.719Z,27.20
2017-08-11T12:47:40.219Z,27.30
2017-08-11T12:50:07.722Z,27.30
2017-08-11T12:52:35.961Z,27.10
2017-08-11T12:55:03.450Z,27.10
2017-08-11T12:57:30.946Z,27.20
2017-08-11T12:59:58.435Z,27.10
2017-08-11T13:02:25.920Z,27.20
2017-08-11T13:04:54.184Z,27.30
2017-08-11T13:07:21.675Z,27.20
2017-08-11T13:09:49.149Z,27.20
2017-08-11T13:12:16.647Z,27.10
2017-08-11T13:14:44.134Z,27.20
2017-08-11T13:17:11.631Z,27.30
2017-08-11T13:19:39.131Z,27.40
2017-08-11T13:22:06.632Z,27.40
2017-08-11T13:24:34.127Z,27.20
2017-08-11T13:27:01.616Z,27.20
2017-08-11T13:29:29.092Z,27.00
2017-08-11T13:31:56.577Z,27.00
2017-08-11T13:34:24.064Z,27.00
2017-08-11T13:36:51.551Z,27.00
2017-08-11T13:39:19.040Z,27.30
2017-08-11T13:41:46.560Z,27.40
2017-08-11T13:44:14.033Z,27.40
2017-08-11T13:46:41.509Z,27.40
2017-08-11T13:49:09.768Z,27.60
2017-08-11T13:51:37.238Z,27.60
2017-08-11T13:54:04.726Z,27.60
2017-08-11T13:56:32.209Z,27.20
2017-08-11T13:58:59.692Z,27.30
2017-08-11T14:01:27.172Z,27.50
2017-08-11T14:03:54.674Z,27.60
2017-08-11T14:06:22.156Z,27.60
2017-08-11T14:08:49.642Z,27.80
2017-08-11T14:11:17.144Z,27.80
2017-08-11T14:13:44.636Z,27.60
2017-08-11T14:16:12.117Z,27.60
2017-08-11T14:18:39.617Z,27.50
2017-08-11T14:21:07.092Z,27.50
2017-08-11T14:23:40.354Z,27.60
2017-08-11T14:26:07.824Z,27.50
2017-08-11T14:28:35.307Z,27.40
2017-08-11T14:31:02.808Z,27.60
2017-08-11T14:33:30.287Z,27.70
2017-08-11T14:35:58.527Z,27.80
2017-08-11T14:38:26.025Z,27.80
2017-08-11T14:40:54.264Z,27.70
2017-08-11T14:43:21.750Z,27.70
2017-08-11T14:45:50.014Z,27.60
2017-08-11T14:48:17.499Z,27.60
2017-08-11T14:50:44.998Z,27.80
2017-08-11T14:53:12.489Z,27.80
2017-08-11T14:55:40.031Z,27.70
2017-08-11T14:58:07.522Z,27.60
2017-08-11T15:00:35.121Z,27.70
2017-08-11T15:03:02.606Z,27.60
2017-08-11T15:05:30.107Z,27.70
2017-08-11T15:07:58.391Z,27.90
2017-08-11T15:10:25.876Z,27.90
2017-08-11T15:12:53.357Z,28.00
2017-08-11T15:15:20.858Z,28.00
2017-08-11T15:17:48.347Z,27.80
2017-08-11T15:20:15.835Z,27.80
2017-08-11T15:22:43.325Z,27.90
2017-08-11T15:25:11.575Z,27.80
2017-08-11T15:27:39.055Z,27.80
2017-08-11T15:30:06.576Z,28.00
2017-08-11T15:32:34.063Z,28.10
2017-08-11T15:35:01.545Z,28.10
2017-08-11T15:37:29.802Z,28.10
2017-08-11T15:39:57.287Z,28.10
2017-08-11T15:42:25.545Z,27.90
2017-08-11T15:44:53.051Z,27.90
2017-08-11T15:47:20.535Z,27.80
2017-08-11T15:49:48.017Z,27.90
2017-08-11T15:52:15.520Z,28.00
2017-08-11T15:54:43.002Z,28.00
2017-08-11T15:57:10.480Z,27.90
2017-08-11T15:59:37.977Z,27.90
2017-08-11T16:02:06.224Z,27.20
2017-08-11T16:04:33.709Z,27.20
2017-08-11T16:07:01.202Z,27.10
2017-08-11T16:09:28.690Z,27.00
2017-08-11T16:11:56.177Z,26.70
2017-08-11T16:14:24.442Z,26.60
2017-08-11T16:16:51.935Z,26.60
2017-08-11T16:19:19.418Z,26.50
2017-08-11T16:21:46.925Z,26.40
2017-08-11T16:24:14.416Z,26.40
2017-08-11T16:26:41.906Z,26.50
2017-08-11T16:29:09.420Z,26.40
2017-08-11T16:31:36.889Z,26.30
2017-08-11T16:34:04.375Z,26.40
2017-08-11T16:36:31.878Z,26.40
2017-08-11T16:38:59.359Z,26.20
2017-08-11T16:41:27.607Z,26.20
2017-08-11T16:43:55.113Z,26.10
2017-08-11T16:46:22.612Z,26.30
2017-08-11T16:48:50.111Z,26.40
2017-08-11T16:51:17.618Z,26.30
2017-08-11T16:53:45.105Z,26.30
2017-08-11T16:56:12.590Z,26.30
2017-08-11T16:58:40.866Z,26.30
2017-08-11T17:01:08.358Z,26.20
2017-08-11T17:03:35.857Z,26.30
2017-08-11T17:06:03.360Z,26.40
2017-08-11T17:08:30.841Z,26.40
2017-08-11T17:10:58.330Z,26.30
2017-08-11T17:13:25.821Z,26.30
2017-08-11T17:15:53.317Z,26.30
2017-08-11T17:18:20.805Z,26.10
2017-08-11T17:20:48.307Z,26.20
2017-08-11T17:23:15.799Z,26.20
2017-08-11T17:25:43.296Z,26.10
2017-08-11T17:28:10.793Z,26.00
2017-08-11T17:30:38.281Z,26.10
2017-08-11T17:33:05.771Z,26.10
2017-08-11T17:35:33.269Z,26.20
2017-08-11T17:38:00.751Z,26.00
2017-08-11T17:40:28.230Z,26.10
2017-08-11T17:42:55.742Z,26.10
2017-08-11T17:45:23.231Z,26.10
2017-08-11T17:47:50.727Z,26.10
2017-08-11T17:50:18.242Z,26.10
2017-08-11T17:52:45.735Z,25.90
2017-08-11T17:55:13.237Z,25.80
2017-08-11T17:57:40.748Z,25.80
2017-08-11T18:00:08.236Z,26.00
2017-08-11T18:02:35.720Z,25.80
2017-08-11T18:05:03.223Z,25.80
2017-08-11T18:07:30.717Z,25.80
2017-08-11T18:09:58.209Z,25.90
2017-08-11T18:12:25.706Z,25.70
2017-08-11T18:14:53.196Z,25.50
2017-08-11T18:17:20.711Z,25.50
2017-08-11T18:19:48.201Z,25.30
2017-08-11T18:22:15.683Z,25.30
2017-08-11T18:24:43.163Z,25.30
2017-08-11T18:27:10.671Z,25.20
2017-08-11T18:29:38.166Z,25.20
2017-08-11T18:32:05.664Z,25.40
2017-08-11T18:34:33.163Z,25.40
2017-08-11T18:37:00.663Z,25.10
2017-08-11T18:39:28.162Z,25.00
2017-08-11T18:41:55.673Z,24.80
2017-08-11T18:44:23.165Z,24.70
2017-08-11T18:46:50.669Z,24.70
2017-08-11T18:49:18.180Z,24.80
2017-08-11T18:51:45.694Z,24.80
2017-08-11T18:54:13.184Z,24.60
2017-08-11T18:56:40.680Z,24.60
2017-08-11T18:59:08.166Z,24.50
2017-08-11T19:01:35.653Z,24.50
2017-08-11T19:04:03.154Z,24.30
2017-08-11T19:06:30.643Z,24.30
2017-08-11T19:08:58.132Z,24.30
2017-08-11T19:11:25.657Z,24.20
2017-08-11T19:13:53.154Z,24.20
2017-08-11T19:16:20.643Z,24.20
2017-08-11T19:18:48.152Z,24.10
2017-08-11T19:21:15.642Z,24.00
2017-08-11T19:23:43.133Z,24.10
2017-08-11T19:26:10.679Z,24.10
2017-08-11T19:28:38.163Z,24.00
2017-08-11T19:31:06.411Z,24.30
2017-08-11T19:33:33.917Z,24.30
2017-08-11T19:36:01.407Z,24.50
2017-08-11T19:38:28.903Z,24.30
2017-08-11T19:40:56.412Z,23.90
2017-08-11T19:43:23.911Z,23.90
2017-08-11T19:45:51.393Z,23.70
2017-08-11T19:48:18.881Z,23.70
2017-08-11T19:50:46.362Z,24.10
2017-08-11T19:53:14.750Z,24.40
2017-08-11T19:55:42.252Z,25.00
2017-08-11T19:58:12.390Z,24.20
2017-08-11T20:00:39.877Z,24.10
2017-08-11T20:03:07.374Z,24.00
2017-08-11T20:05:34.861Z,23.70
2017-08-11T20:08:02.366Z,23.50
2017-08-11T20:10:29.887Z,23.80
2017-08-11T20:12:57.383Z,23.90
2017-08-11T20:15:24.882Z,23.70
2017-08-11T20:17:53.160Z,23.60
2017-08-11T20:20:21.416Z,23.40
2017-08-11T20:22:48.913Z,23.40
2017-08-11T20:25:16.418Z,23.40
2017-08-11T20:27:43.902Z,23.50
2017-08-11T20:30:11.396Z,23.40
2017-08-11T20:32:38.895Z,23.30
2017-08-11T20:35:06.373Z,23.20
2017-08-11T20:37:33.870Z,23.80
2017-08-11T20:40:01.374Z,23.90
2017-08-11T20:42:28.867Z,23.50
2017-08-11T20:44:57.128Z,23.40
2017-08-11T20:47:24.641Z,23.40
2017-08-11T20:49:52.131Z,23.10
2017-08-11T20:52:19.615Z,23.00
2017-08-11T20:54:47.117Z,22.90
2017-08-11T20:57:14.599Z,23.00
2017-08-11T20:59:42.078Z,22.90
2017-08-11T21:02:09.586Z,22.90
2017-08-11T21:04:37.063Z,23.00
2017-08-11T21:07:04.555Z,24.10
2017-08-11T21:09:32.068Z,24.10
2017-08-11T21:11:59.559Z,23.60
2017-08-11T21:14:27.058Z,23.70
2017-08-11T21:16:55.334Z,24.00
2017-08-11T21:19:23.586Z,24.20
2017-08-11T21:21:51.129Z,24.10
2017-08-11T21:24:18.856Z,23.80
2017-08-11T21:26:46.339Z,23.80
2017-08-11T21:29:13.825Z,24.00
2017-08-11T21:31:41.368Z,23.90
2017-08-11T21:34:08.843Z,24.30
2017-08-11T21:36:36.330Z,24.10
2017-08-11T21:39:03.842Z,23.50
2017-08-11T21:41:31.335Z,23.10
2017-08-11T21:43:58.828Z,23.10
2017-08-11T21:46:26.331Z,24.10
2017-08-11T21:48:53.831Z,24.30
2017-08-11T21:51:22.083Z,24.00
2017-08-11T21:53:49.707Z,23.90
2017-08-11T21:56:17.210Z,23.90
2017-08-11T21:58:44.689Z,23.80
2017-08-11T22:01:12.963Z,23.70
2017-08-11T22:03:41.218Z,23.80
2017-08-11T22:06:08.716Z,23.70
2017-08-11T22:08:36.243Z,23.00
2017-08-11T22:11:03.738Z,22.80
2017-08-11T22:13:31.227Z,22.60
2017-08-11T22:15:58.738Z,22.60
2017-08-11T22:18:27.380Z,22.40
2017-08-11T22:20:54.935Z,22.30
2017-08-11T22:23:22.449Z,22.40
2017-08-11T22:25:50.701Z,22.60
2017-08-11T22:28:18.191Z,22.50
2017-08-11T22:30:46.477Z,22.40
2017-08-11T22:33:13.951Z,22.40
2017-08-11T22:35:41.430Z,22.50
2017-08-11T22:38:08.930Z,22.30
2017-08-11T22:40:36.409Z,22.70
2017-08-11T22:43:03.902Z,22.80
2017-08-11T22:45:31.411Z,22.40
2017-08-11T22:47:58.903Z,23.00
2017-08-11T22:50:26.386Z,22.80
2017-08-11T22:52:53.930Z,22.60
2017-08-11T22:55:21.407Z,22.60
2017-08-11T22:57:48.882Z,22.80
2017-08-11T23:00:16.382Z,22.60
2017-08-11T23:02:43.875Z,23.10
2017-08-11T23:05:11.374Z,22.90
2017-08-11T23:07:38.890Z,22.60
2017-08-11T23:10:06.371Z,22.30
2017-08-11T23:12:33.859Z,22.20
2017-08-11T23:15:02.157Z,21.90
2017-08-11T23:17:29.652Z,21.80
2017-08-11T23:19:57.134Z,21.90
2017-08-11T23:22:24.642Z,21.80
2017-08-11T23:24:52.131Z,21.70
2017-08-11T23:27:19.611Z,21.70
2017-08-11T23:29:47.747Z,21.70
2017-08-11T23:32:15.677Z,22.40
2017-08-11T23:34:44.137Z,23.40
2017-08-11T23:37:11.818Z,23.30
2017-08-11T23:39:39.637Z,22.50
2017-08-11T23:42:07.449Z,22.00
2017-08-11T23:44:35.558Z,21.60
2017-08-11T23:47:03.186Z,21.30
2017-08-11T23:49:31.796Z,21.10
2017-08-11T23:51:59.869Z,21.10
2017-08-11T23:54:27.519Z,21.20
2017-08-11T23:56:56.046Z,21.60
2017-08-11T23:59:24.039Z,21.50
